Edgewood, Maryland
Current Conditions -  °F | °C
As of 3:45 PM on Thursday 23 Oct 2014 (Local Time) from KMTN Reporting Station
Broken Clouds Broken Clouds  
Wind Chill: 63°   Ceiling: 4300
Heat Index: 63°   Visibility: 10mi
Dew Point: 50°   Wind: 18mph
Humidity: 63%   Direction: 290°WNW
Pressure: 29.83"   Gusts: 24mph
Location:  39.43°N, 76.3°W
Report Text: KMTN 231945Z 29016G21KT 10SM BKN043 17/10 A2983
Loading
Personal Weather Stations






























Interactive Weather Map
Tropical Storm Tracking
New forecast layout! Learn more

10-Day Weather Forecast

Advertisements
Track Severe Weather on mobile